Private Wetterstation Sandau
Wetterdaten: Samstag, 05.05.2012
Datum Zeit Temp. A. Feuchte A. Luftdruck Regen Wind Richtung Richtung Taupunkt Windchill
05.05.2012 00:01 13,1 C 76 % 1002,8 hPa 0,0 l/m 3,2 km/h (1 Bft) N-NO 22 9,0 C 13,1 C
05.05.2012 00:06 13,0 C 76 % 1002,7 hPa 0,0 l/m 5,8 km/h (2 Bft) N-NO 22 8,9 C 13,0 C
05.05.2012 00:11 12,9 C 77 % 1002,7 hPa 0,0 l/m 0,0 km/h (0 Bft) N 360 9,0 C 12,9 C
05.05.2012 00:16 12,8 C 77 % 1002,8 hPa 0,0 l/m 2,9 km/h (1 Bft) NO 45 8,9 C 12,8 C
05.05.2012 00:21 12,8 C 77 % 1002,9 hPa 0,0 l/m 1,8 km/h (1 Bft) NO 45 8,9 C 12,8 C
05.05.2012 00:26 12,8 C 77 % 1003,0 hPa 0,0 l/m 2,2 km/h (1 Bft) NW 315 8,9 C 12,8 C
05.05.2012 00:31 12,8 C 77 % 1003,3 hPa 0,0 l/m 4,3 km/h (1 Bft) W-NW 292 8,9 C 12,8 C
05.05.2012 00:36 12,8 C 77 % 1003,3 hPa 0,0 l/m 2,2 km/h (1 Bft) W-NW 292 8,9 C 12,8 C
05.05.2012 00:41 12,8 C 77 % 1003,2 hPa 0,0 l/m 2,2 km/h (1 Bft) NW 315 8,9 C 12,8 C
05.05.2012 00:46 12,8 C 77 % 1003,3 hPa 0,0 l/m 2,5 km/h (1 Bft) N-NW 337 8,9 C 12,8 C
05.05.2012 00:51 12,6 C 77 % 1003,3 hPa 0,0 l/m 0,0 km/h (0 Bft) NW 315 8,7 C 12,6 C
05.05.2012 00:56 12,6 C 77 % 1003,4 hPa 0,0 l/m 2,5 km/h (1 Bft) NW 315 8,7 C 12,6 C
05.05.2012 01:01 12,6 C 77 % 1003,2 hPa 0,0 l/m 0,0 km/h (0 Bft) NW 315 8,7 C 12,6 C
05.05.2012 01:06 12,7 C 77 % 1003,3 hPa 0,0 l/m 3,6 km/h (1 Bft) W-NW 292 8,8 C 12,7 C
05.05.2012 01:11 12,6 C 77 % 1003,2 hPa 0,0 l/m 1,8 km/h (1 Bft) W-NW 292 8,7 C 12,6 C
05.05.2012 01:16 12,6 C 77 % 1003,3 hPa 0,5 l/m 1,8 km/h (1 Bft) W 270 8,7 C 12,6 C
05.05.2012 01:21 12,6 C 77 % 1003,3 hPa 0,0 l/m 0,0 km/h (0 Bft) W 270 8,7 C 12,6 C
05.05.2012 01:26 12,7 C 77 % 1003,3 hPa 0,0 l/m 2,9 km/h (1 Bft) W 270 8,8 C 12,7 C
05.05.2012 01:31 12,7 C 77 % 1003,3 hPa 0,0 l/m 0,0 km/h (0 Bft) W-NW 292 8,8 C 12,7 C
05.05.2012 01:36 12,7 C 77 % 1003,3 hPa 0,0 l/m 0,0 km/h (0 Bft) NW 315 8,8 C 12,7 C
05.05.2012 01:41 12,6 C 77 % 1003,2 hPa 0,0 l/m 1,1 km/h (1 Bft) NW 315 8,7 C 12,6 C
05.05.2012 01:46 12,4 C 77 % 1003,1 hPa 0,0 l/m 0,0 km/h (0 Bft) W 270 8,5 C 12,4 C
05.05.2012 01:51 12,4 C 77 % 1003,3 hPa 0,0 l/m 2,5 km/h (1 Bft) NW 315 8,5 C 12,4 C
05.05.2012 01:56 12,4 C 77 % 1003,3 hPa 0,0 l/m 2,5 km/h (1 Bft) W 270 8,5 C 12,4 C
05.05.2012 02:01 12,4 C 77 % 1003,3 hPa 0,0 l/m 2,2 km/h (1 Bft) W-NW 292 8,5 C 12,4 C
05.05.2012 02:06 12,4 C 77 % 1003,3 hPa 0,0 l/m 4,0 km/h (1 Bft) NW 315 8,5 C 12,4 C
05.05.2012 02:11 12,3 C 78 % 1003,3 hPa 0,0 l/m 1,4 km/h (1 Bft) NW 315 8,6 C 12,3 C
05.05.2012 02:16 12,3 C 78 % 1003,1 hPa 0,0 l/m 0,0 km/h (0 Bft) W-NW 292 8,6 C 12,3 C
05.05.2012 02:21 12,3 C 78 % 1003,2 hPa 0,0 l/m 1,8 km/h (1 Bft) N-NW 337 8,6 C 12,3 C
05.05.2012 02:26 12,2 C 78 % 1003,2 hPa 0,0 l/m 0,0 km/h (0 Bft) N-NW 337 8,5 C 12,2 C
05.05.2012 02:31 12,3 C 78 % 1003,1 hPa 0,0 l/m 1,8 km/h (1 Bft) W-NW 292 8,6 C 12,3 C
05.05.2012 02:36 12,3 C 78 % 1003,2 hPa 0,0 l/m 0,0 km/h (0 Bft) W-NW 292 8,6 C 12,3 C
05.05.2012 02:41 12,3 C 78 % 1003,2 hPa 0,0 l/m 1,8 km/h (1 Bft) W 270 8,6 C 12,3 C
05.05.2012 02:46 12,4 C 78 % 1003,3 hPa 0,0 l/m 2,5 km/h (1 Bft) W-NW 292 8,7 C 12,4 C
05.05.2012 02:51 12,4 C 78 % 1003,3 hPa 0,0 l/m 2,5 km/h (1 Bft) W-SW 247 8,7 C 12,4 C
05.05.2012 02:56 12,4 C 78 % 1003,5 hPa 0,0 l/m 5,4 km/h (1 Bft) W-SW 247 8,7 C 12,4 C
05.05.2012 03:01 12,4 C 78 % 1003,4 hPa 0,0 l/m 3,2 km/h (1 Bft) W-SW 247 8,7 C 12,4 C
05.05.2012 03:06 12,4 C 78 % 1003,6 hPa 0,0 l/m 5,8 km/h (2 Bft) W-SW 247 8,7 C 12,4 C
05.05.2012 03:11 12,4 C 78 % 1003,7 hPa 0,0 l/m 3,6 km/h (1 Bft) W-SW 247 8,7 C 12,4 C
05.05.2012 03:16 12,4 C 78 % 1003,7 hPa 0,0 l/m 4,7 km/h (1 Bft) W-NW 292 8,7 C 12,4 C
05.05.2012 03:21 12,4 C 78 % 1003,7 hPa 0,0 l/m 3,6 km/h (1 Bft) W 270 8,7 C 12,4 C
05.05.2012 03:26 12,4 C 78 % 1003,7 hPa 0,0 l/m 0,0 km/h (0 Bft) W 270 8,7 C 12,4 C
05.05.2012 03:31 12,3 C 78 % 1003,7 hPa 0,0 l/m 4,3 km/h (1 Bft) W-NW 292 8,6 C 12,3 C
05.05.2012 03:36 12,1 C 78 % 1003,6 hPa 0,0 l/m 3,6 km/h (1 Bft) NW 315 8,4 C 12,1 C
05.05.2012 03:41 12,1 C 78 % 1003,6 hPa 0,0 l/m 2,5 km/h (1 Bft) W-NW 292 8,4 C 12,1 C
05.05.2012 03:46 12,1 C 78 % 1003,6 hPa 0,0 l/m 0,0 km/h (0 Bft) NW 315 8,4 C 12,1 C
05.05.2012 03:51 11,9 C 78 % 1003,5 hPa 0,0 l/m 4,0 km/h (1 Bft) W 270 8,2 C 11,9 C
05.05.2012 03:56 11,9 C 78 % 1003,6 hPa 0,0 l/m 4,0 km/h (1 Bft) W-NW 292 8,2 C 11,9 C
05.05.2012 04:01 11,9 C 78 % 1003,7 hPa 0,0 l/m 4,3 km/h (1 Bft) W-NW 292 8,2 C 11,9 C
05.05.2012 04:06 11,8 C 78 % 1003,5 hPa 0,0 l/m 4,7 km/h (1 Bft) W-NW 292 8,1 C 11,8 C
05.05.2012 04:11 11,6 C 79 % 1003,4 hPa 0,0 l/m 3,6 km/h (1 Bft) NW 315 8,1 C 11,6 C
05.05.2012 04:16 11,6 C 79 % 1003,4 hPa 0,0 l/m 1,4 km/h (1 Bft) W 270 8,1 C 11,6 C
05.05.2012 04:21 11,6 C 79 % 1003,3 hPa 0,0 l/m 5,8 km/h (2 Bft) NW 315 8,1 C 11,6 C
05.05.2012 04:26 11,6 C 80 % 1003,3 hPa 0,0 l/m 1,8 km/h (1 Bft) NW 315 8,3 C 11,6 C
05.05.2012 04:31 11,6 C 80 % 1003,4 hPa 0,0 l/m 2,9 km/h (1 Bft) W-NW 292 8,3 C 11,6 C
05.05.2012 04:36 11,6 C 80 % 1003,4 hPa 0,0 l/m 2,5 km/h (1 Bft) W-NW 292 8,3 C 11,6 C
05.05.2012 04:41 11,6 C 80 % 1003,4 hPa 0,0 l/m 2,2 km/h (1 Bft) W-NW 292 8,3 C 11,6 C
05.05.2012 04:46 11,6 C 80 % 1003,5 hPa 0,0 l/m 1,1 km/h (1 Bft) NW 315 8,3 C 11,6 C
05.05.2012 04:51 11,6 C 80 % 1003,5 hPa 0,0 l/m 0,0 km/h (0 Bft) NW 315 8,3 C 11,6 C
05.05.2012 04:56 11,6 C 80 % 1003,5 hPa 0,0 l/m 3,6 km/h (1 Bft) W-NW 292 8,3 C 11,6 C
05.05.2012 05:01 11,6 C 80 % 1003,4 hPa 0,0 l/m 4,0 km/h (1 Bft) NW 315 8,3 C 11,6 C
05.05.2012 05:06 11,6 C 80 % 1003,7 hPa 0,0 l/m 2,2 km/h (1 Bft) NW 315 8,3 C 11,6 C
05.05.2012 05:11 11,5 C 80 % 1003,6 hPa 0,0 l/m 2,2 km/h (1 Bft) NW 315 8,2 C 11,5 C
05.05.2012 05:16 11,4 C 80 % 1003,4 hPa 0,0 l/m 3,2 km/h (1 Bft) N 360 8,1 C 11,4 C
05.05.2012 05:21 11,3 C 80 % 1003,5 hPa 0,0 l/m 1,4 km/h (1 Bft) O-NO 67 8,0 C 11,3 C
05.05.2012 05:26 11,1 C 80 % 1003,6 hPa 0,0 l/m 4,0 km/h (1 Bft) W-NW 292 7,8 C 11,1 C
05.05.2012 05:31 11,1 C 81 % 1003,8 hPa 0,0 l/m 5,4 km/h (1 Bft) NW 315 8,0 C 11,1 C
05.05.2012 05:36 11,1 C 81 % 1003,9 hPa 0,0 l/m 1,4 km/h (1 Bft) W 270 8,0 C 11,1 C
05.05.2012 05:41 11,1 C 81 % 1004,0 hPa 0,0 l/m 5,4 km/h (1 Bft) W-NW 292 8,0 C 11,1 C
05.05.2012 05:46 11,0 C 81 % 1004,0 hPa 0,0 l/m 6,1 km/h (2 Bft) W-NW 292 7,9 C 11,0 C
05.05.2012 05:51 11,0 C 81 % 1004,1 hPa 0,0 l/m 5,0 km/h (1 Bft) W-NW 292 7,9 C 11,0 C
05.05.2012 05:56 11,0 C 82 % 1004,1 hPa 0,0 l/m 4,0 km/h (1 Bft) N-NW 337 8,0 C 11,0 C
05.05.2012 06:01 11,0 C 82 % 1004,1 hPa 0,0 l/m 4,3 km/h (1 Bft) W-NW 292 8,0 C 11,0 C
05.05.2012 06:06 11,0 C 82 % 1004,2 hPa 0,0 l/m 5,8 km/h (2 Bft) W-NW 292 8,0 C 11,0 C
05.05.2012 06:11 11,0 C 82 % 1004,1 hPa 0,0 l/m 0,0 km/h (0 Bft) W-NW 292 8,0 C 11,0 C
05.05.2012 06:16 11,1 C 82 % 1004,1 hPa 0,0 l/m 3,6 km/h (1 Bft) N-NW 337 8,1 C 11,1 C
05.05.2012 06:21 11,0 C 82 % 1004,1 hPa 0,0 l/m 0,0 km/h (0 Bft) N-NW 337 8,0 C 11,0 C
05.05.2012 06:26 11,0 C 82 % 1004,1 hPa 0,0 l/m 0,0 km/h (0 Bft) W-NW 292 8,0 C 11,0 C
05.05.2012 06:31 11,0 C 82 % 1004,1 hPa 0,0 l/m 2,2 km/h (1 Bft) W-NW 292 8,0 C 11,0 C
05.05.2012 06:36 11,0 C 81 % 1004,2 hPa 0,0 l/m 1,1 km/h (1 Bft) W-NW 292 7,9 C 11,0 C
05.05.2012 06:41 11,1 C 81 % 1004,2 hPa 0,0 l/m 3,2 km/h (1 Bft) W-NW 292 8,0 C 11,1 C
05.05.2012 06:46 11,2 C 81 % 1004,3 hPa 0,0 l/m 5,8 km/h (2 Bft) N 360 8,1 C 11,2 C
05.05.2012 06:51 11,2 C 81 % 1004,4 hPa 0,0 l/m 8,3 km/h (2 Bft) NW 315 8,1 C 11,2 C
05.05.2012 06:56 11,1 C 80 % 1004,5 hPa 0,0 l/m 0,0 km/h (0 Bft) N-NW 337 7,8 C 11,1 C
05.05.2012 07:01 11,0 C 80 % 1004,4 hPa 0,0 l/m 6,8 km/h (2 Bft) W-NW 292 7,7 C 11,0 C
05.05.2012 07:06 10,9 C 80 % 1004,5 hPa 0,0 l/m 3,2 km/h (1 Bft) N-NO 22 7,6 C 10,9 C
05.05.2012 07:11 10,9 C 81 % 1004,5 hPa 0,0 l/m 2,5 km/h (1 Bft) W-NW 292 7,8 C 10,9 C
05.05.2012 07:16 10,8 C 81 % 1004,5 hPa 0,0 l/m 2,2 km/h (1 Bft) N-NW 337 7,7 C 10,8 C
05.05.2012 07:21 10,6 C 81 % 1004,5 hPa 0,0 l/m 10,1 km/h (2 Bft) N 360 7,5 C 10,6 C
05.05.2012 07:26 10,2 C 81 % 1004,5 hPa 0,0 l/m 8,6 km/h (2 Bft) N-NO 22 7,1 C 10,2 C
05.05.2012 07:31 9,9 C 82 % 1004,6 hPa 0,0 l/m 12,6 km/h (3 Bft) N 360 7,0 C 8,1 C
05.05.2012 07:36 9,8 C 81 % 1004,8 hPa 0,0 l/m 6,5 km/h (2 Bft) N-NO 22 6,7 C 9,1 C
05.05.2012 07:41 9,6 C 81 % 1004,9 hPa 0,0 l/m 15,5 km/h (3 Bft) NO 45 6,5 C 7,4 C
05.05.2012 07:46 9,6 C 81 % 1004,9 hPa 0,0 l/m 4,7 km/h (1 Bft) N 360 6,5 C 9,4 C
05.05.2012 07:51 9,6 C 81 % 1004,8 hPa 0,0 l/m 2,9 km/h (1 Bft) O-NO 67 6,5 C 9,6 C
05.05.2012 07:56 9,6 C 81 % 1004,8 hPa 0,0 l/m 10,1 km/h (2 Bft) N-NO 22 6,5 C 8,1 C
05.05.2012 08:01 9,6 C 81 % 1004,8 hPa 0,0 l/m 2,2 km/h (1 Bft) N 360 6,5 C 9,6 C
05.05.2012 08:06 9,6 C 81 % 1005,1 hPa 0,0 l/m 1,1 km/h (1 Bft) N-NW 337 6,5 C 9,6 C
05.05.2012 08:11 9,6 C 80 % 1005,2 hPa 0,0 l/m 3,2 km/h (1 Bft) N 360 6,3 C 9,6 C
05.05.2012 08:16 9,6 C 80 % 1005,2 hPa 0,0 l/m 3,6 km/h (1 Bft) N-NO 22 6,3 C 9,6 C
05.05.2012 08:21 9,6 C 80 % 1005,3 hPa 0,0 l/m 4,0 km/h (1 Bft) N-NO 22 6,3 C 9,6 C
05.05.2012 08:26 9,6 C 79 % 1005,4 hPa 0,0 l/m 5,8 km/h (2 Bft) NO 45 6,1 C 9,1 C
05.05.2012 08:31 9,6 C 79 % 1005,5 hPa 0,0 l/m 2,5 km/h (1 Bft) NO 45 6,1 C 9,6 C
05.05.2012 08:36 9,6 C 79 % 1005,5 hPa 0,0 l/m 7,6 km/h (2 Bft) NO 45 6,1 C 8,6 C
05.05.2012 08:41 9,6 C 79 % 1005,8 hPa 0,0 l/m 1,8 km/h (1 Bft) N 360 6,1 C 9,6 C
05.05.2012 08:46 9,6 C 79 % 1006,1 hPa 0,0 l/m 4,3 km/h (1 Bft) NW 315 6,1 C 9,6 C
05.05.2012 08:51 9,6 C 79 % 1006,1 hPa 0,0 l/m 5,4 km/h (1 Bft) N-NO 22 6,1 C 9,2 C
05.05.2012 08:56 9,5 C 80 % 1006,2 hPa 0,5 l/m 4,0 km/h (1 Bft) O-NO 67 6,2 C 9,5 C
05.05.2012 09:01 9,5 C 80 % 1006,0 hPa 0,5 l/m 4,7 km/h (1 Bft) NO 45 6,2 C 9,3 C
05.05.2012 09:06 9,2 C 81 % 1006,0 hPa 0,5 l/m 9,4 km/h (2 Bft) NO 45 6,1 C 7,8 C
05.05.2012 09:11 9,0 C 82 % 1005,9 hPa 0,0 l/m 6,8 km/h (2 Bft) N-NO 22 6,1 C 8,1 C
05.05.2012 09:16 8,9 C 83 % 1006,0 hPa 0,0 l/m 4,0 km/h (1 Bft) NO 45 6,2 C 8,9 C
05.05.2012 09:21 8,9 C 83 % 1006,1 hPa 0,0 l/m 3,6 km/h (1 Bft) N-NO 22 6,2 C 8,9 C
05.05.2012 09:26 8,9 C 84 % 1006,3 hPa 0,0 l/m 8,3 km/h (2 Bft) NO 45 6,3 C 7,7 C
05.05.2012 09:31 8,9 C 83 % 1006,5 hPa 0,0 l/m 5,8 km/h (2 Bft) NO 45 6,2 C 8,3 C
05.05.2012 09:36 8,9 C 84 % 1006,5 hPa 0,0 l/m 5,0 km/h (1 Bft) NO 45 6,3 C 8,5 C
05.05.2012 09:41 8,9 C 83 % 1006,5 hPa 0,0 l/m 5,4 km/h (1 Bft) NO 45 6,2 C 8,4 C
05.05.2012 09:46 8,9 C 84 % 1006,4 hPa 0,0 l/m 0,0 km/h (0 Bft) N-NW 337 6,3 C 8,9 C
05.05.2012 09:51 8,9 C 84 % 1006,6 hPa 0,0 l/m 4,0 km/h (1 Bft) O-NO 67 6,3 C 8,9 C
05.05.2012 09:56 8,8 C 84 % 1006,7 hPa 0,0 l/m 5,4 km/h (1 Bft) N-NO 22 6,2 C 8,3 C
05.05.2012 10:01 8,7 C 84 % 1006,7 hPa 0,0 l/m 4,7 km/h (1 Bft) N-NO 22 6,2 C 8,4 C
05.05.2012 10:06 8,6 C 84 % 1006,8 hPa 0,5 l/m 3,2 km/h (1 Bft) N-NO 22 6,1 C 8,6 C
05.05.2012 10:11 8,5 C 84 % 1006,9 hPa 0,0 l/m 4,7 km/h (1 Bft) N 360 6,0 C 8,2 C
05.05.2012 10:16 8,4 C 83 % 1006,8 hPa 0,0 l/m 4,7 km/h (1 Bft) N-NO 22 5,7 C 8,0 C
05.05.2012 10:21 8,4 C 83 % 1006,9 hPa 0,5 l/m 6,1 km/h (2 Bft) N-NO 22 5,7 C 7,6 C
05.05.2012 10:26 8,4 C 84 % 1007,0 hPa 0,0 l/m 9,7 km/h (2 Bft) N 360 5,9 C 6,8 C
05.05.2012 10:31 8,3 C 84 % 1007,0 hPa 0,0 l/m 9,0 km/h (2 Bft) N-NO 22 5,8 C 6,8 C
05.05.2012 10:36 8,3 C 85 % 1007,0 hPa 0,0 l/m 3,6 km/h (1 Bft) NO 45 5,9 C 8,3 C
05.05.2012 10:41 8,3 C 85 % 1007,0 hPa 0,0 l/m 5,4 km/h (1 Bft) N-NO 22 5,9 C 7,7 C
05.05.2012 10:46 8,3 C 84 % 1007,3 hPa 0,0 l/m 8,3 km/h (2 Bft) N-NO 22 5,8 C 6,9 C
05.05.2012 10:51 8,3 C 85 % 1006,9 hPa 0,0 l/m 6,1 km/h (2 Bft) N-NW 337 5,9 C 7,5 C
05.05.2012 10:56 8,4 C 83 % 1007,0 hPa 0,0 l/m 6,5 km/h (2 Bft) N 360 5,7 C 7,5 C
05.05.2012 11:01 8,4 C 83 % 1007,2 hPa 0,0 l/m 6,5 km/h (2 Bft) N 360 5,7 C 7,5 C
05.05.2012 11:06 8,3 C 83 % 1007,2 hPa 0,0 l/m 5,0 km/h (1 Bft) NO 45 5,6 C 7,8 C
05.05.2012 11:11 8,4 C 83 % 1007,2 hPa 0,0 l/m 5,0 km/h (1 Bft) O-NO 67 5,7 C 7,9 C
05.05.2012 11:16 8,3 C 83 % 1007,3 hPa 0,0 l/m 8,6 km/h (2 Bft) N-NW 337 5,6 C 6,9 C
05.05.2012 11:21 8,4 C 82 % 1007,3 hPa 0,0 l/m 8,3 km/h (2 Bft) N-NO 22 5,5 C 7,1 C
05.05.2012 11:26 8,4 C 81 % 1007,4 hPa 0,0 l/m 5,0 km/h (1 Bft) N-NO 22 5,3 C 7,9 C
05.05.2012 11:31 8,5 C 81 % 1007,5 hPa 0,0 l/m 2,9 km/h (1 Bft) NO 45 5,4 C 8,5 C
05.05.2012 11:36 8,6 C 80 % 1007,5 hPa 0,0 l/m 7,2 km/h (2 Bft) O-NO 67 5,3 C 7,5 C
05.05.2012 11:41 8,8 C 81 % 1007,4 hPa 0,0 l/m 14,4 km/h (3 Bft) N 360 5,7 C 6,5 C
05.05.2012 11:46 8,8 C 81 % 1007,4 hPa 0,0 l/m 4,7 km/h (1 Bft) NO 45 5,7 C 8,5 C
05.05.2012 11:51 8,9 C 81 % 1007,4 hPa 0,0 l/m 13,3 km/h (3 Bft) NO 45 5,8 C 6,8 C
05.05.2012 11:56 8,9 C 81 % 1007,4 hPa 0,0 l/m 13,7 km/h (3 Bft) N 360 5,8 C 6,7 C
05.05.2012 12:01 8,9 C 81 % 1007,2 hPa 0,0 l/m 13,7 km/h (3 Bft) NO 45 5,8 C 6,7 C
05.05.2012 12:06 9,0 C 81 % 1007,1 hPa 0,0 l/m 7,2 km/h (2 Bft) O-NO 67 5,9 C 8,0 C
05.05.2012 12:11 9,2 C 80 % 1007,2 hPa 0,0 l/m 15,5 km/h (3 Bft) N 360 5,9 C 6,9 C
05.05.2012 12:16 9,2 C 79 % 1007,4 hPa 0,0 l/m 15,8 km/h (3 Bft) N-NO 22 5,8 C 6,8 C
05.05.2012 12:21 9,2 C 78 % 1007,4 hPa 0,0 l/m 6,8 km/h (2 Bft) NO 45 5,6 C 8,3 C
05.05.2012 12:26 9,3 C 79 % 1007,7 hPa 0,0 l/m 10,4 km/h (2 Bft) N-NO 22 5,8 C 7,7 C
05.05.2012 12:31 9,3 C 77 % 1007,6 hPa 0,0 l/m 9,4 km/h (2 Bft) O-NO 67 5,5 C 7,9 C
05.05.2012 12:36 9,3 C 75 % 1007,4 hPa 0,0 l/m 9,4 km/h (2 Bft) NO 45 5,1 C 7,9 C
05.05.2012 12:41 9,4 C 75 % 1007,7 hPa 0,0 l/m 0,0 km/h (0 Bft) O-NO 67 5,2 C 9,4 C
05.05.2012 12:46 9,4 C 76 % 1007,7 hPa 0,0 l/m 8,6 km/h (2 Bft) O-NO 67 5,4 C 8,2 C
05.05.2012 12:51 9,6 C 76 % 1007,8 hPa 0,0 l/m 8,3 km/h (2 Bft) O-NO 67 5,6 C 8,5 C
05.05.2012 12:56 9,7 C 76 % 1007,7 hPa 0,0 l/m 8,3 km/h (2 Bft) N-NO 22 5,7 C 8,6 C
05.05.2012 13:01 9,8 C 74 % 1007,7 hPa 0,0 l/m 11,2 km/h (2 Bft) N 360 5,4 C 8,2 C
05.05.2012 13:06 9,6 C 73 % 1007,9 hPa 0,0 l/m 7,2 km/h (2 Bft) O 90 5,0 C 8,7 C
05.05.2012 13:11 9,6 C 73 % 1008,0 hPa 0,0 l/m 9,4 km/h (2 Bft) NO 45 5,0 C 8,3 C
05.05.2012 13:16 9,6 C 72 % 1008,0 hPa 0,0 l/m 6,1 km/h (2 Bft) O-NO 67 4,8 C 9,0 C
05.05.2012 13:21 9,6 C 72 % 1007,8 hPa 0,0 l/m 6,5 km/h (2 Bft) NO 45 4,8 C 8,9 C
05.05.2012 13:26 9,6 C 72 % 1008,0 hPa 0,0 l/m 8,6 km/h (2 Bft) O 90 4,8 C 8,4 C
05.05.2012 13:31 9,6 C 72 % 1007,9 hPa 0,0 l/m 2,5 km/h (1 Bft) NO 45 4,8 C 9,6 C
05.05.2012 13:36 9,6 C 73 % 1008,0 hPa 0,0 l/m 7,9 km/h (2 Bft) N-NO 22 5,0 C 8,6 C
05.05.2012 13:41 9,5 C 74 % 1008,0 hPa 0,0 l/m 6,1 km/h (2 Bft) N-NO 22 5,1 C 8,9 C
05.05.2012 13:46 9,3 C 72 % 1008,1 hPa 0,5 l/m 6,5 km/h (2 Bft) O 90 4,5 C 8,5 C
05.05.2012 13:51 9,2 C 71 % 1008,1 hPa 0,0 l/m 3,2 km/h (1 Bft) O 90 4,2 C 9,2 C
05.05.2012 13:56 9,1 C 71 % 1008,4 hPa 0,0 l/m 2,2 km/h (1 Bft) O-NO 67 4,1 C 9,1 C
05.05.2012 14:01 8,9 C 71 % 1008,4 hPa 0,0 l/m 3,2 km/h (1 Bft) NO 45 3,9 C 8,9 C
05.05.2012 14:06 8,8 C 71 % 1008,5 hPa 0,5 l/m 1,1 km/h (1 Bft) NO 45 3,8 C 8,8 C
05.05.2012 14:11 8,8 C 72 % 1008,4 hPa 0,0 l/m 3,6 km/h (1 Bft) O-NO 67 4,0 C 8,8 C
05.05.2012 14:16 8,8 C 72 % 1008,3 hPa 0,0 l/m 2,5 km/h (1 Bft) N-NO 22 4,0 C 8,8 C
05.05.2012 14:21 8,9 C 73 % 1008,4 hPa 0,0 l/m 0,0 km/h (0 Bft) NO 45 4,3 C 8,9 C
05.05.2012 14:26 8,9 C 73 % 1008,4 hPa 0,0 l/m 4,0 km/h (1 Bft) O-NO 67 4,3 C 8,9 C
05.05.2012 14:31 8,9 C 73 % 1008,2 hPa 0,0 l/m 4,7 km/h (1 Bft) NO 45 4,3 C 8,6 C
05.05.2012 14:36 8,9 C 73 % 1008,4 hPa 0,0 l/m 2,9 km/h (1 Bft) N-NO 22 4,3 C 8,9 C
05.05.2012 14:41 8,9 C 73 % 1008,2 hPa 0,0 l/m 2,5 km/h (1 Bft) O-NO 67 4,3 C 8,9 C
05.05.2012 14:46 9,1 C 73 % 1008,4 hPa 0,0 l/m 0,0 km/h (0 Bft) O-NO 67 4,5 C 9,1 C
05.05.2012 14:51 9,2 C 73 % 1008,3 hPa 0,0 l/m 4,7 km/h (1 Bft) O-SO 112 4,6 C 8,9 C
05.05.2012 14:56 9,2 C 73 % 1008,2 hPa 0,0 l/m 2,2 km/h (1 Bft) NO 45 4,6 C 9,2 C
05.05.2012 15:01 9,3 C 73 % 1008,1 hPa 0,0 l/m 1,1 km/h (1 Bft) NO 45 4,7 C 9,3 C
05.05.2012 15:06 9,4 C 73 % 1008,1 hPa 0,0 l/m 6,1 km/h (2 Bft) NO 45 4,8 C 8,8 C
05.05.2012 15:11 9,4 C 73 % 1008,3 hPa 0,0 l/m 0,0 km/h (0 Bft) NO 45 4,8 C 9,4 C
05.05.2012 15:16 9,5 C 73 % 1008,2 hPa 0,0 l/m 2,9 km/h (1 Bft) N-NO 22 4,9 C 9,5 C
05.05.2012 15:21 9,5 C 72 % 1008,1 hPa 0,0 l/m 3,6 km/h (1 Bft) NO 45 4,7 C 9,5 C
05.05.2012 15:26 9,6 C 72 % 1008,0 hPa 0,0 l/m 2,2 km/h (1 Bft) O-NO 67 4,8 C 9,6 C
05.05.2012 15:31 9,8 C 72 % 1008,1 hPa 0,0 l/m 1,8 km/h (1 Bft) O 90 5,0 C 9,8 C
05.05.2012 15:36 9,9 C 72 % 1008,0 hPa 0,0 l/m 0,0 km/h (0 Bft) O-NO 67 5,1 C 9,9 C
05.05.2012 15:41 9,9 C 73 % 1008,1 hPa 0,0 l/m 2,5 km/h (1 Bft) O-SO 112 5,3 C 9,9 C
05.05.2012 15:46 9,9 C 72 % 1008,1 hPa 0,0 l/m 0,0 km/h (0 Bft) O 90 5,1 C 9,9 C
05.05.2012 15:51 9,9 C 72 % 1008,2 hPa 0,0 l/m 6,1 km/h (2 Bft) O 90 5,1 C 9,3 C
05.05.2012 15:56 10,1 C 72 % 1008,1 hPa 0,0 l/m 1,4 km/h (1 Bft) O 90 5,3 C 10,1 C
05.05.2012 16:01 10,1 C 72 % 1007,9 hPa 0,0 l/m 2,5 km/h (1 Bft) SO 135 5,3 C 10,1 C
05.05.2012 16:06 10,1 C 72 % 1008,1 hPa 0,0 l/m 6,1 km/h (2 Bft) O 90 5,3 C 10,1 C
05.05.2012 16:11 10,1 C 72 % 1008,0 hPa 0,0 l/m 1,4 km/h (1 Bft) O-SO 112 5,3 C 10,1 C
05.05.2012 16:16 10,2 C 73 % 1008,0 hPa 0,0 l/m 1,4 km/h (1 Bft) O-SO 112 5,6 C 10,2 C
05.05.2012 16:21 10,3 C 72 % 1007,7 hPa 0,0 l/m 3,6 km/h (1 Bft) O 90 5,5 C 10,3 C
05.05.2012 16:26 10,3 C 72 % 1007,8 hPa 0,0 l/m 3,2 km/h (1 Bft) SO 135 5,5 C 10,3 C
05.05.2012 16:31 10,4 C 72 % 1007,8 hPa 0,0 l/m 1,8 km/h (1 Bft) O-SO 112 5,6 C 10,4 C
05.05.2012 16:36 10,4 C 72 % 1007,8 hPa 0,0 l/m 1,4 km/h (1 Bft) O-SO 112 5,6 C 10,4 C
05.05.2012 16:41 10,5 C 72 % 1007,9 hPa 0,0 l/m 4,7 km/h (1 Bft) O 90 5,7 C 10,5 C
05.05.2012 16:46 10,5 C 72 % 1007,8 hPa 0,0 l/m 0,0 km/h (0 Bft) O 90 5,7 C 10,5 C
05.05.2012 16:51 10,5 C 72 % 1007,8 hPa 0,0 l/m 3,6 km/h (1 Bft) SO 135 5,7 C 10,5 C
05.05.2012 16:56 10,5 C 72 % 1007,9 hPa 0,0 l/m 1,1 km/h (1 Bft) O-SO 112 5,7 C 10,5 C
05.05.2012 17:01 10,6 C 72 % 1007,9 hPa 0,0 l/m 0,0 km/h (0 Bft) O-SO 112 5,8 C 10,6 C
05.05.2012 17:06 10,6 C 72 % 1008,0 hPa 0,0 l/m 0,0 km/h (0 Bft) SO 135 5,8 C 10,6 C
05.05.2012 17:11 10,6 C 72 % 1008,1 hPa 0,0 l/m 1,1 km/h (1 Bft) O 90 5,8 C 10,6 C
05.05.2012 17:16 10,6 C 72 % 1007,9 hPa 0,0 l/m 0,0 km/h (0 Bft) O 90 5,8 C 10,6 C
05.05.2012 17:21 10,6 C 73 % 1007,9 hPa 0,0 l/m 3,2 km/h (1 Bft) O 90 6,0 C 10,6 C
05.05.2012 17:26 10,7 C 72 % 1008,0 hPa 0,0 l/m 2,2 km/h (1 Bft) O-SO 112 5,9 C 10,7 C
05.05.2012 17:31 10,7 C 72 % 1008,0 hPa 0,0 l/m 0,0 km/h (0 Bft) O-SO 112 5,9 C 10,7 C
05.05.2012 17:36 10,7 C 72 % 1008,0 hPa 0,0 l/m 3,2 km/h (1 Bft) SO 135 5,9 C 10,7 C
05.05.2012 17:41 10,6 C 73 % 1008,2 hPa 0,0 l/m 2,9 km/h (1 Bft) O 90 6,0 C 10,6 C
05.05.2012 17:46 10,6 C 73 % 1008,0 hPa 0,0 l/m 2,5 km/h (1 Bft) O-SO 112 6,0 C 10,6 C
05.05.2012 17:51 10,6 C 74 % 1008,3 hPa 0,0 l/m 3,6 km/h (1 Bft) SO 135 6,2 C 10,6 C
05.05.2012 17:56 10,7 C 74 % 1008,2 hPa 0,0 l/m 0,0 km/h (0 Bft) SO 135 6,3 C 10,7 C
05.05.2012 18:01 10,7 C 74 % 1008,4 hPa 0,0 l/m 7,2 km/h (2 Bft) SO 135 6,3 C 10,7 C
05.05.2012 18:06 10,6 C 74 % 1008,3 hPa 0,0 l/m 3,2 km/h (1 Bft) SO 135 6,2 C 10,6 C
05.05.2012 18:11 10,7 C 75 % 1008,2 hPa 0,0 l/m 2,2 km/h (1 Bft) SO 135 6,5 C 10,7 C
05.05.2012 18:16 10,7 C 75 % 1008,4 hPa 0,0 l/m 2,5 km/h (1 Bft) O-SO 112 6,5 C 10,7 C
05.05.2012 18:21 10,8 C 75 % 1008,4 hPa 0,0 l/m 3,6 km/h (1 Bft) SO 135 6,5 C 10,8 C
05.05.2012 18:26 10,8 C 75 % 1008,4 hPa 0,0 l/m 1,1 km/h (1 Bft) SO 135 6,5 C 10,8 C
05.05.2012 18:31 10,7 C 75 % 1008,2 hPa 0,0 l/m 3,6 km/h (1 Bft) SO 135 6,5 C 10,7 C
05.05.2012 18:36 10,7 C 75 % 1008,3 hPa 0,0 l/m 4,3 km/h (1 Bft) S-SO 157 6,5 C 10,7 C
05.05.2012 18:41 10,8 C 75 % 1008,2 hPa 0,0 l/m 5,0 km/h (1 Bft) S-SO 157 6,5 C 10,8 C
05.05.2012 18:46 10,8 C 75 % 1008,3 hPa 0,0 l/m 0,0 km/h (0 Bft) SO 135 6,5 C 10,8 C
05.05.2012 18:51 10,8 C 75 % 1008,2 hPa 0,0 l/m 0,0 km/h (0 Bft) S-SO 157 6,5 C 10,8 C
05.05.2012 18:56 10,8 C 75 % 1008,1 hPa 0,0 l/m 0,0 km/h (0 Bft) S-SO 157 6,5 C 10,8 C
05.05.2012 19:01 10,8 C 75 % 1008,2 hPa 0,0 l/m 1,8 km/h (1 Bft) S-SO 157 6,5 C 10,8 C
05.05.2012 19:06 10,8 C 75 % 1008,1 hPa 0,0 l/m 0,0 km/h (0 Bft) S-SO 157 6,5 C 10,8 C
05.05.2012 19:11 10,8 C 75 % 1008,1 hPa 0,0 l/m 3,2 km/h (1 Bft) S-SO 157 6,5 C 10,8 C
05.05.2012 19:16 10,8 C 75 % 1008,1 hPa 0,0 l/m 0,0 km/h (0 Bft) SO 135 6,5 C 10,8 C
05.05.2012 19:21 10,6 C 75 % 1008,0 hPa 0,0 l/m 2,2 km/h (1 Bft) SO 135 6,4 C 10,6 C
05.05.2012 19:26 10,5 C 75 % 1008,1 hPa 0,0 l/m 0,0 km/h (0 Bft) SO 135 6,3 C 10,5 C
05.05.2012 19:31 10,5 C 76 % 1008,1 hPa 0,0 l/m 0,0 km/h (0 Bft) SO 135 6,5 C 10,5 C
05.05.2012 19:36 10,4 C 76 % 1008,1 hPa 0,0 l/m 2,5 km/h (1 Bft) SO 135 6,4 C 10,4 C
05.05.2012 19:41 10,3 C 76 % 1008,1 hPa 0,0 l/m 2,9 km/h (1 Bft) O-SO 112 6,3 C 10,3 C
05.05.2012 19:46 10,3 C 76 % 1008,0 hPa 0,0 l/m 3,2 km/h (1 Bft) O-SO 112 6,3 C 10,3 C
05.05.2012 19:51 10,1 C 76 % 1008,1 hPa 0,0 l/m 0,0 km/h (0 Bft) O 90 6,1 C 10,1 C
05.05.2012 19:56 10,1 C 77 % 1008,0 hPa 0,0 l/m 0,0 km/h (0 Bft) SO 135 6,3 C 10,1 C
05.05.2012 20:01 10,1 C 77 % 1007,9 hPa 0,0 l/m 1,1 km/h (1 Bft) O 90 6,3 C 10,1 C
05.05.2012 20:06 10,0 C 77 % 1008,0 hPa 0,0 l/m 0,0 km/h (0 Bft) O 90 6,2 C 10,0 C
05.05.2012 20:11 9,9 C 77 % 1008,1 hPa 0,0 l/m 2,2 km/h (1 Bft) O-SO 112 6,1 C 9,9 C
05.05.2012 20:16 9,9 C 77 % 1008,0 hPa 0,0 l/m 0,0 km/h (0 Bft) O 90 6,1 C 9,9 C
05.05.2012 20:21 9,8 C 77 % 1008,1 hPa 0,0 l/m 1,1 km/h (1 Bft) O 90 6,0 C 9,8 C
05.05.2012 20:26 9,8 C 78 % 1008,1 hPa 0,0 l/m 1,4 km/h (1 Bft) O 90 6,1 C 9,8 C
05.05.2012 20:31 9,8 C 78 % 1008,1 hPa 0,0 l/m 1,1 km/h (1 Bft) O 90 6,1 C 9,8 C
05.05.2012 20:36 9,8 C 78 % 1008,2 hPa 0,0 l/m 0,0 km/h (0 Bft) O 90 6,1 C 9,8 C
05.05.2012 20:41 9,8 C 78 % 1008,2 hPa 0,0 l/m 0,0 km/h (0 Bft) O 90 6,1 C 9,8 C
05.05.2012 20:46 9,8 C 78 % 1008,2 hPa 0,0 l/m 0,0 km/h (0 Bft) O 90 6,1 C 9,8 C
05.05.2012 20:51 9,8 C 78 % 1008,4 hPa 0,0 l/m 0,0 km/h (0 Bft) O 90 6,1 C 9,8 C
05.05.2012 20:56 9,8 C 78 % 1008,4 hPa 0,0 l/m 0,0 km/h (0 Bft) O 90 6,1 C 9,8 C
05.05.2012 21:01 9,7 C 79 % 1008,4 hPa 0,0 l/m 0,0 km/h (0 Bft) O 90 6,2 C 9,7 C
05.05.2012 21:06 9,8 C 79 % 1008,4 hPa 0,0 l/m 0,0 km/h (0 Bft) O 90 6,3 C 9,8 C
05.05.2012 21:11 9,8 C 79 % 1008,5 hPa 0,0 l/m 0,0 km/h (0 Bft) O 90 6,3 C 9,8 C
05.05.2012 21:16 9,9 C 80 % 1008,7 hPa 0,5 l/m 1,8 km/h (1 Bft) SO 135 6,6 C 9,9 C
05.05.2012 21:21 9,9 C 80 % 1008,6 hPa 0,0 l/m 0,0 km/h (0 Bft) SO 135 6,6 C 9,9 C
05.05.2012 21:26 10,1 C 80 % 1008,6 hPa 0,0 l/m 1,8 km/h (1 Bft) SO 135 6,8 C 10,1 C
05.05.2012 21:31 10,1 C 80 % 1008,8 hPa 0,0 l/m 1,4 km/h (1 Bft) SO 135 6,8 C 10,1 C
05.05.2012 21:36 10,1 C 80 % 1008,7 hPa 0,0 l/m 0,0 km/h (0 Bft) SO 135 6,8 C 10,1 C
05.05.2012 21:41 10,1 C 80 % 1008,8 hPa 0,0 l/m 0,0 km/h (0 Bft) SO 135 6,8 C 10,1 C
05.05.2012 21:46 10,2 C 80 % 1008,8 hPa 0,0 l/m 0,0 km/h (0 Bft) SO 135 6,9 C 10,2 C
05.05.2012 21:51 10,2 C 80 % 1008,7 hPa 0,0 l/m 1,1 km/h (1 Bft) SO 135 6,9 C 10,2 C
05.05.2012 21:56 10,2 C 80 % 1008,7 hPa 0,0 l/m 3,6 km/h (1 Bft) S-SO 157 6,9 C 10,2 C
05.05.2012 22:01 10,1 C 80 % 1008,8 hPa 0,0 l/m 0,0 km/h (0 Bft) S-SO 157 6,8 C 10,1 C
05.05.2012 22:06 10,1 C 80 % 1008,9 hPa 0,0 l/m 0,0 km/h (0 Bft) S-SO 157 6,8 C 10,1 C
05.05.2012 22:11 10,1 C 80 % 1009,1 hPa 0,0 l/m 2,2 km/h (1 Bft) S-SO 157 6,8 C 10,1 C
05.05.2012 22:16 10,1 C 80 % 1009,0 hPa 0,0 l/m 2,2 km/h (1 Bft) S 180 6,8 C 10,1 C
05.05.2012 22:21 10,1 C 80 % 1009,0 hPa 0,0 l/m 0,0 km/h (0 Bft) S-SO 157 6,8 C 10,1 C
05.05.2012 22:26 9,9 C 80 % 1009,1 hPa 0,0 l/m 0,0 km/h (0 Bft) S-SO 157 6,6 C 9,9 C
05.05.2012 22:31 9,9 C 81 % 1009,1 hPa 0,0 l/m 1,1 km/h (1 Bft) S-SW 202 6,8 C 9,9 C
05.05.2012 22:36 9,9 C 81 % 1009,1 hPa 0,0 l/m 2,2 km/h (1 Bft) W-SW 247 6,8 C 9,9 C
05.05.2012 22:41 9,8 C 81 % 1009,1 hPa 0,0 l/m 0,0 km/h (0 Bft) S 180 6,7 C 9,8 C
05.05.2012 22:46 9,8 C 81 % 1009,2 hPa 0,0 l/m 0,0 km/h (0 Bft) S 180 6,7 C 9,8 C
05.05.2012 22:51 9,8 C 81 % 1009,1 hPa 0,0 l/m 1,4 km/h (1 Bft) S-SO 157 6,7 C 9,8 C
05.05.2012 22:56 9,6 C 80 % 1009,0 hPa 0,0 l/m 0,0 km/h (0 Bft) NO 45 6,3 C 9,6 C
05.05.2012 23:01 9,4 C 78 % 1009,1 hPa 0,0 l/m 0,0 km/h (0 Bft) NO 45 5,8 C 9,4 C
05.05.2012 23:06 9,3 C 78 % 1009,1 hPa 0,0 l/m 0,0 km/h (0 Bft) N-NO 22 5,7 C 9,3 C
05.05.2012 23:11 9,3 C 78 % 1009,2 hPa 0,0 l/m 1,8 km/h (1 Bft) N-NO 22 5,7 C 9,3 C
05.05.2012 23:16 9,3 C 77 % 1009,2 hPa 0,0 l/m 0,0 km/h (0 Bft) NO 45 5,5 C 9,3 C
05.05.2012 23:21 9,3 C 77 % 1009,2 hPa 0,0 l/m 0,0 km/h (0 Bft) NO 45 5,5 C 9,3 C
05.05.2012 23:26 9,3 C 77 % 1009,4 hPa 0,0 l/m 0,0 km/h (0 Bft) O-NO 67 5,5 C 9,3 C
05.05.2012 23:31 9,2 C 75 % 1009,3 hPa 0,0 l/m 1,4 km/h (1 Bft) O-NO 67 5,0 C 9,2 C
05.05.2012 23:36 9,1 C 75 % 1009,3 hPa 0,0 l/m 0,0 km/h (0 Bft) O-NO 67 4,9 C 9,1 C
05.05.2012 23:41 9,1 C 74 % 1009,5 hPa 0,0 l/m 0,0 km/h (0 Bft) O 90 4,7 C 9,1 C
05.05.2012 23:46 9,1 C 75 % 1009,5 hPa 0,0 l/m 0,0 km/h (0 Bft) O-NO 67 4,9 C 9,1 C
05.05.2012 23:51 9,1 C 74 % 1009,7 hPa 0,0 l/m 0,0 km/h (0 Bft) O 90 4,7 C 9,1 C
05.05.2012 23:56 9,1 C 74 % 1009,6 hPa 0,0 l/m 0,0 km/h (0 Bft) O-NO 67 4,7 C 9,1 C
_ Min-Zeit 10:31 13:51 00:06 - 00:11 - - 14:06 11:41
Minimum _ 8,3 C 71 % 1002,7 hPa - 0,0 km/h (0 Bft) - - 3,8 C 6,5 C
_ Max-Zeit 00:01 10:36 23:51 01:16 12:16 - - 00:11 00:01
Maximum _ 13,1 C 85 % 1009,7 hPa 0,5 l/m 15,8 km/h
N-NO (3 Bft)
- - 9,0 C 13,1 C
Durchschnitt _ 10,3 C 78 % 1006,5 hPa #4,7 l/m 3,3 km/h (1 Bft) NO - 6,6 C 10,1 C
(c) by David Heller